Time;durP1;ratioP1;P1;durP2;ratioP2;P2;SDS_P1;SDS_P2;PMS_P1;PMS_P2;Temp;Humidity;BMP_temperature;BMP_pressure;BME280_temperature;BME280_humidity;BME280_pressure;Samples;Min_cycle;Max_cycle;Signal;HPM_P1;HPM_P2
2022/01/20 00:00:44;;;;;;;21.85;10.88;;;;;;;2.08;100.00;94831.13;4979568;28;20432;-84
2022/01/20 00:03:14;;;;;;;23.48;11.18;;;;;;;2.03;100.00;94823.19;4994291;28;20066;-84
2022/01/20 00:08:27;;;;;;;26.20;11.65;;;;;;;2.05;100.00;94825.56;4979448;28;20026;-84
2022/01/20 00:27:16;;;;;;;30.58;13.32;;;;;;;1.53;100.00;94833.97;4992812;28;20480;-84
2022/01/20 00:32:38;;;;;;;28.23;12.55;;;;;;;1.55;100.00;94816.47;4992850;28;20046;-84
2022/01/20 00:35:16;;;;;;;27.38;11.10;;;;;;;1.50;100.00;94817.06;4980102;28;20034;-84
2022/01/20 00:37:42;;;;;;;25.85;10.70;;;;;;;1.57;100.00;94811.91;4980102;28;20039;-85
2022/01/20 00:40:08;;;;;;;23.60;10.93;;;;;;;1.68;100.00;94821.63;4994870;28;20058;-84
2022/01/20 00:42:33;;;;;;;25.27;10.63;;;;;;;1.78;100.00;94820.41;4994963;28;20125;-84
2022/01/20 00:44:59;;;;;;;21.40;10.38;;;;;;;1.82;100.00;94821.63;4979707;28;20054;-84
2022/01/20 00:47:24;;;;;;;23.30;9.93;;;;;;;1.89;100.00;94817.22;4994939;28;20043;-84
2022/01/20 00:49:50;;;;;;;21.85;11.52;;;;;;;2.04;100.00;94809.28;4994931;28;20058;-84
2022/01/20 00:52:15;;;;;;;22.70;11.02;;;;;;;2.29;100.00;94823.31;4994514;28;20074;-85
2022/01/20 00:54:41;;;;;;;27.60;12.43;;;;;;;2.34;100.00;94813.16;4978291;28;20075;-84
2022/01/20 00:57:07;;;;;;;26.63;10.57;;;;;;;2.49;100.00;94820.66;4994750;28;20483;-85
2022/01/20 00:59:32;;;;;;;18.17;9.18;;;;;;;2.61;100.00;94802.69;4994483;28;20038;-84
2022/01/20 01:01:59;;;;;;;15.40;7.68;;;;;;;2.89;100.00;94804.16;4993679;28;20444;-84
2022/01/20 01:04:27;;;;;;;21.55;8.93;;;;;;;2.85;100.00;94814.13;4994290;28;20039;-84
2022/01/20 01:07:17;;;;;;;24.23;11.60;;;;;;;2.71;100.00;94812.59;4978388;28;20507;-84
2022/01/20 01:09:44;;;;;;;24.80;11.88;;;;;;;2.67;100.00;94807.84;4965387;28;20038;-84
2022/01/20 01:12:15;;;;;;;29.75;12.10;;;;;;;2.71;100.00;94812.59;4978064;28;20030;-84
2022/01/20 01:14:46;;;;;;;21.90;10.40;;;;;;;2.59;100.00;94808.09;4993781;28;20348;-84
2022/01/20 01:22:21;;;;;;;23.35;9.77;;;;;;;2.49;100.00;94802.56;4991769;28;20053;-84
2022/01/20 01:24:55;;;;;;;20.77;9.88;;;;;;;2.38;100.00;94806.59;4993945;28;20034;-85
2022/01/20 01:27:23;;;;;;;23.83;10.95;;;;;;;2.31;100.00;94798.03;4979247;28;20441;-85
2022/01/20 01:32:31;;;;;;;20.73;10.57;;;;;;;2.18;100.00;94798.91;4978002;28;20058;-84
2022/01/20 01:34:58;;;;;;;21.70;11.15;;;;;;;2.21;100.00;94788.91;4995291;28;20128;-85
2022/01/20 01:38:22;;;;;;;24.67;10.73;;;;;;;2.17;100.00;94781.81;4997294;28;20040;-85
2022/01/20 01:40:11;;;;;;;26.48;11.20;;;;;;;2.30;100.00;94776.59;4998211;28;20041;-85
2022/01/20 01:42:44;;;;;;;26.48;11.40;;;;;;;2.42;100.00;94783.69;4993605;28;20030;-85
2022/01/20 01:45:25;;;;;;;26.07;11.63;;;;;;;2.58;100.00;94793.56;4979181;28;20452;-85
2022/01/20 01:47:50;;;;;;;25.60;11.57;;;;;;;2.66;100.00;94792.56;4999232;28;20288;-85
2022/01/20 01:50:16;;;;;;;25.52;10.60;;;;;;;2.88;100.00;94790.44;4992671;28;20034;-85
2022/01/20 01:52:45;;;;;;;23.73;10.25;;;;;;;2.82;100.00;94783.50;4996990;28;20034;-85
2022/01/20 01:55:10;;;;;;;23.85;11.32;;;;;;;2.74;100.00;94778.56;4980853;28;20383;-85
2022/01/20 01:57:36;;;;;;;24.88;12.20;;;;;;;2.52;100.00;94782.25;4998082;28;20058;-84
2022/01/20 02:00:04;;;;;;;23.35;10.48;;;;;;;2.58;100.00;94785.00;5012948;28;20026;-85
2022/01/20 02:02:30;;;;;;;21.75;10.52;;;;;;;2.59;100.00;94773.66;4996736;28;20038;-84
2022/01/20 02:04:55;;;;;;;20.27;10.32;;;;;;;2.61;100.00;94772.47;4997874;28;20091;-84
2022/01/20 02:08:18;;;;;;;19.85;8.75;;;;;;;2.72;100.00;94765.84;4997697;28;20033;-84
2022/01/20 02:20:51;;;;;;;17.20;7.18;;;;;;;3.10;100.00;94754.66;4996286;28;20018;-84
2022/01/20 02:23:17;;;;;;;13.82;6.55;;;;;;;3.06;100.00;94748.28;4996565;28;20117;-84
2022/01/20 02:25:42;;;;;;;15.77;6.63;;;;;;;3.15;100.00;94748.03;4997584;28;20121;-84
2022/01/20 02:28:10;;;;;;;18.15;7.13;;;;;;;3.16;100.00;94741.88;4997692;28;20109;-84
2022/01/20 02:30:36;;;;;;;14.55;7.20;;;;;;;3.13;100.00;94739.69;4996336;28;20022;-84
2022/01/20 02:33:06;;;;;;;18.20;6.70;;;;;;;3.03;100.00;94735.00;5012722;28;20034;-85
2022/01/20 02:35:35;;;;;;;13.93;6.47;;;;;;;2.95;100.00;94734.25;5012627;28;20423;-85
2022/01/20 02:38:09;;;;;;;13.45;6.63;;;;;;;2.83;100.00;94731.53;4997552;28;20121;-85
2022/01/20 02:45:50;;;;;;;16.35;6.82;;;;;;;2.93;100.00;94725.09;4996088;28;20045;-84
2022/01/20 02:48:15;;;;;;;15.32;7.22;;;;;;;2.89;100.00;94721.34;5012398;28;20026;-84
2022/01/20 02:50:41;;;;;;;14.15;6.47;;;;;;;2.97;100.00;94719.28;4979886;28;20355;-84
2022/01/20 02:53:06;;;;;;;16.00;7.00;;;;;;;2.87;100.00;94718.97;4997432;28;20136;-84
2022/01/20 02:55:32;;;;;;;14.80;6.30;;;;;;;2.84;100.00;94711.63;4997029;28;20037;-84
2022/01/20 02:57:57;;;;;;;13.70;7.05;;;;;;;2.90;100.00;94710.78;5012191;28;20042;-84
2022/01/20 03:00:23;;;;;;;14.63;6.15;;;;;;;2.95;100.00;94695.41;4996172;28;20042;-85
2022/01/20 03:02:49;;;;;;;11.23;5.88;;;;;;;3.00;100.00;94689.59;4996218;28;20356;-84
2022/01/20 03:05:15;;;;;;;10.38;4.93;;;;;;;3.03;100.00;94681.41;4996089;28;20054;-85
2022/01/20 03:07:41;;;;;;;13.35;5.68;;;;;;;2.84;100.00;94683.16;4995796;28;20080;-85
2022/01/20 03:10:07;;;;;;;13.73;5.78;;;;;;;2.73;100.00;94670.91;4996050;28;20061;-84
2022/01/20 03:12:33;;;;;;;14.35;6.78;;;;;;;2.63;100.00;94682.50;4996084;28;20387;-84
2022/01/20 03:14:59;;;;;;;24.08;9.68;;;;;;;2.40;100.00;94688.22;4995993;28;20052;-85
2022/01/20 03:17:24;;;;;;;18.33;8.38;;;;;;;2.34;100.00;94694.19;4995792;28;20072;-85
2022/01/20 03:19:50;;;;;;;20.15;9.75;;;;;;;2.44;100.00;94689.38;4996016;28;20118;-85
2022/01/20 03:22:15;;;;;;;19.20;7.85;;;;;;;2.47;100.00;94685.59;4995614;28;20065;-84
2022/01/20 03:24:41;;;;;;;17.00;7.97;;;;;;;2.49;100.00;94683.59;4995948;28;20038;-84
2022/01/20 03:27:07;;;;;;;15.80;7.13;;;;;;;2.52;100.00;94672.81;5015778;28;20045;-84
2022/01/20 03:29:32;;;;;;;18.27;7.95;;;;;;;2.53;100.00;94667.44;4999352;28;20471;-84
2022/01/20 03:31:58;;;;;;;17.58;7.38;;;;;;;2.61;100.00;94658.63;5000423;28;20432;-84
2022/01/20 03:34:23;;;;;;;16.50;8.50;;;;;;;2.74;100.00;94647.38;4999453;28;20034;-84
2022/01/20 03:36:49;;;;;;;13.30;6.22;;;;;;;2.68;100.00;94648.25;4999561;28;20038;-85
2022/01/20 03:39:15;;;;;;;13.07;5.80;;;;;;;2.72;100.00;94659.75;5015877;28;20038;-85
2022/01/20 03:41:41;;;;;;;10.30;5.75;;;;;;;2.70;100.00;94654.00;5000469;28;20348;-84
2022/01/20 03:44:06;;;;;;;10.00;4.93;;;;;;;2.69;100.00;94655.00;4982799;28;20121;-85
2022/01/20 03:46:32;;;;;;;6.10;3.10;;;;;;;2.93;100.00;94650.84;5000550;28;20041;-84
2022/01/20 03:49:08;;;;;;;17.02;4.28;;;;;;;3.18;100.00;94654.41;4999045;28;20061;-85
2022/01/20 03:51:34;;;;;;;9.52;4.45;;;;;;;3.29;100.00;94660.66;5014003;28;20033;-84
2022/01/20 03:53:59;;;;;;;7.57;4.20;;;;;;;3.02;100.00;94650.56;5015187;28;20355;-84
2022/01/20 03:56:25;;;;;;;10.73;4.35;;;;;;;3.02;100.00;94658.34;4999211;28;20030;-84
2022/01/20 03:58:53;;;;;;;11.23;5.50;;;;;;;3.00;100.00;94657.75;5000184;28;20042;-85
2022/01/20 04:01:22;;;;;;;17.67;6.70;;;;;;;2.84;100.00;94659.84;5015137;28;20033;-85
2022/01/20 04:03:48;;;;;;;12.70;6.60;;;;;;;2.81;100.00;94655.91;4998953;28;20140;-85
2022/01/20 04:06:14;;;;;;;13.73;6.63;;;;;;;2.66;100.00;94663.19;5000204;28;20066;-85
2022/01/20 04:08:45;;;;;;;11.68;6.40;;;;;;;2.74;100.00;94656.97;4998916;28;20050;-84
2022/01/20 04:11:13;;;;;;;18.85;7.20;;;;;;;2.74;100.00;94651.78;5015120;28;20038;-84
2022/01/20 04:13:39;;;;;;;11.43;5.32;;;;;;;2.73;100.00;94647.63;4998722;28;20085;-84
2022/01/20 04:16:13;;;;;;;15.57;7.25;;;;;;;2.81;100.00;94658.50;4998852;28;20038;-84
2022/01/20 04:18:51;;;;;;;16.35;8.18;;;;;;;3.01;100.00;94659.31;4998888;28;20034;-85
2022/01/20 04:21:18;;;;;;;23.00;9.38;;;;;;;2.76;100.00;94660.13;4999718;28;20026;-85
2022/01/20 04:23:44;;;;;;;16.95;8.88;;;;;;;2.57;100.00;94659.25;4998279;28;20030;-85
2022/01/20 04:26:09;;;;;;;19.58;9.73;;;;;;;2.45;100.00;94657.34;4993609;28;20093;-85
2022/01/20 04:28:35;;;;;;;25.98;10.65;;;;;;;2.17;100.00;94655.91;4995360;28;20034;-85
2022/01/20 04:31:00;;;;;;;22.30;9.00;;;;;;;2.10;100.00;94658.53;4987849;28;20507;-85
2022/01/20 04:33:26;;;;;;;15.13;7.57;;;;;;;2.28;100.00;94666.59;4979016;28;20428;-85
2022/01/20 04:35:51;;;;;;;15.80;7.10;;;;;;;2.08;100.00;94654.53;4988968;28;20456;-85
2022/01/20 04:38:16;;;;;;;19.95;8.25;;;;;;;2.05;100.00;94654.97;4999603;28;20038;-85
2022/01/20 04:40:43;;;;;;;19.40;9.30;;;;;;;2.04;100.00;94651.59;4981822;28;20049;-85
2022/01/20 04:43:11;;;;;;;26.98;11.55;;;;;;;2.28;100.00;94653.66;4999584;28;20031;-85
2022/01/20 04:45:44;;;;;;;21.88;10.30;;;;;;;2.26;100.00;94641.75;4997908;28;20038;-85
2022/01/20 04:59:10;;;;;;;29.33;12.90;;;;;;;2.30;100.00;94643.91;4998889;28;20518;-85
2022/01/20 05:01:36;;;;;;;27.45;12.63;;;;;;;2.29;100.00;94650.84;4997930;28;20041;-85
2022/01/20 05:04:03;;;;;;;24.63;11.48;;;;;;;2.19;100.00;94650.53;4998317;28;20041;-85
2022/01/20 05:06:28;;;;;;;24.38;11.50;;;;;;;2.06;100.00;94649.59;4997924;28;20057;-85
2022/01/20 05:08:54;;;;;;;25.67;10.90;;;;;;;1.99;100.00;94646.25;4997806;28;20034;-85
2022/01/20 05:11:19;;;;;;;19.08;10.02;;;;;;;2.00;100.00;94650.41;4997732;28;20049;-85
2022/01/20 05:13:46;;;;;;;22.77;11.07;;;;;;;2.18;100.00;94657.47;4997586;28;20031;-85
2022/01/20 05:16:11;;;;;;;25.15;12.05;;;;;;;2.36;100.00;94656.78;4997373;28;20034;-84
2022/01/20 05:18:37;;;;;;;24.38;11.35;;;;;;;2.32;100.00;94667.75;4997518;28;20468;-85
2022/01/20 05:21:02;;;;;;;27.92;12.13;;;;;;;2.38;100.00;94662.56;4998734;28;20034;-85
2022/01/20 05:23:28;;;;;;;26.20;11.45;;;;;;;2.50;100.00;94662.66;5013989;28;20034;-87
2022/01/20 05:25:53;;;;;;;28.65;11.30;;;;;;;2.52;100.00;94657.28;4997397;28;20031;-85
2022/01/20 05:28:19;;;;;;;25.02;11.32;;;;;;;2.49;100.00;94657.72;4997236;28;20447;-85
2022/01/20 05:30:45;;;;;;;25.98;11.13;;;;;;;2.47;100.00;94654.56;4997100;28;20038;-85
2022/01/20 05:33:10;;;;;;;25.67;12.50;;;;;;;2.40;100.00;94660.53;4981076;28;20325;-86
2022/01/20 05:35:36;;;;;;;32.03;13.25;;;;;;;2.25;100.00;94671.19;4997130;28;20436;-85
2022/01/20 05:38:02;;;;;;;28.33;13.25;;;;;;;2.25;100.00;94666.00;4997295;28;20105;-85
2022/01/20 05:40:27;;;;;;;25.05;12.73;;;;;;;2.15;100.00;94670.84;4997303;28;20122;-85
2022/01/20 05:42:53;;;;;;;27.17;12.65;;;;;;;2.10;100.00;94668.09;4997226;28;20045;-85
2022/01/20 05:45:19;;;;;;;29.88;12.90;;;;;;;2.09;100.00;94676.84;4998002;28;20038;-85
2022/01/20 05:47:47;;;;;;;25.55;11.32;;;;;;;2.22;100.00;94675.97;4996578;28;20138;-84
2022/01/20 05:50:18;;;;;;;27.98;12.52;;;;;;;2.10;100.00;94668.84;4997035;28;20045;-85
2022/01/20 05:52:44;;;;;;;31.65;12.80;;;;;;;2.07;100.00;94674.44;4997013;28;20030;-84
2022/01/20 05:55:21;;;;;;;27.38;12.82;;;;;;;2.02;100.00;94670.88;5013233;28;20036;-84
2022/01/20 05:57:46;;;;;;;22.75;11.18;;;;;;;1.97;100.00;94667.13;4996522;28;20022;-84
2022/01/20 06:00:23;;;;;;;29.55;12.90;;;;;;;2.04;100.00;94671.47;4996892;28;20081;-84
2022/01/20 06:05:34;;;;;;;16.02;8.13;;;;;;;2.34;100.00;94679.50;4977262;28;20030;-84
2022/01/20 06:07:59;;;;;;;19.05;7.30;;;;;;;2.47;100.00;94677.84;4985464;28;20038;-84
2022/01/20 06:10:25;;;;;;;11.02;6.20;;;;;;;2.62;100.00;94683.50;4993007;28;20121;-84
2022/01/20 06:12:50;;;;;;;11.15;5.60;;;;;;;2.63;100.00;94684.28;4997635;28;20026;-85
2022/01/20 06:15:16;;;;;;;12.30;5.63;;;;;;;2.58;100.00;94691.88;4996290;28;20041;-84
2022/01/20 06:17:42;;;;;;;11.55;5.32;;;;;;;2.57;100.00;94693.66;4997808;28;20448;-85
2022/01/20 06:20:09;;;;;;;9.65;4.82;;;;;;;2.63;100.00;94695.44;4996630;28;20096;-84
2022/01/20 06:22:34;;;;;;;9.05;4.65;;;;;;;2.55;100.00;94682.75;4996226;28;20056;-84
2022/01/20 06:25:00;;;;;;;12.27;6.38;;;;;;;2.55;100.00;94685.31;4979942;28;20030;-84
2022/01/20 06:27:25;;;;;;;11.85;5.55;;;;;;;2.51;100.00;94684.97;4996185;28;20057;-84
2022/01/20 06:29:50;;;;;;;16.60;7.07;;;;;;;2.44;100.00;94683.41;4997295;28;20034;-84
2022/01/20 06:32:16;;;;;;;16.20;7.25;;;;;;;2.46;100.00;94686.59;4996356;28;20057;-84
2022/01/20 06:34:41;;;;;;;16.85;7.45;;;;;;;2.37;100.00;94681.66;4997417;28;20447;-84
2022/01/20 06:37:07;;;;;;;15.40;7.07;;;;;;;2.39;100.00;94691.81;4995926;28;20034;-84
2022/01/20 06:39:32;;;;;;;16.15;7.22;;;;;;;2.34;100.00;94694.19;4997499;28;20030;-85
2022/01/20 06:41:58;;;;;;;17.25;7.75;;;;;;;2.34;100.00;94695.00;4995902;28;20451;-85
2022/01/20 06:44:23;;;;;;;13.27;7.15;;;;;;;2.31;100.00;94697.19;4995748;28;20510;-85
2022/01/20 06:46:49;;;;;;;13.43;6.30;;;;;;;2.28;100.00;94695.03;4979821;28;20030;-85
2022/01/20 06:49:16;;;;;;;13.68;6.30;;;;;;;2.31;100.00;94700.59;4997230;28;20032;-85
2022/01/20 06:51:41;;;;;;;13.35;6.10;;;;;;;2.27;100.00;94696.81;5012316;28;20118;-84
2022/01/20 06:54:07;;;;;;;13.38;5.57;;;;;;;2.23;100.00;94693.06;5012241;28;20124;-85
2022/01/20 06:56:33;;;;;;;10.32;5.78;;;;;;;2.09;100.00;94693.13;5012454;28;20030;-85
2022/01/20 06:58:58;;;;;;;10.23;5.18;;;;;;;2.15;100.00;94688.94;4989923;28;20125;-85
2022/01/20 07:01:24;;;;;;;9.90;5.57;;;;;;;2.11;100.00;94691.13;4995590;28;20031;-85
2022/01/20 07:03:49;;;;;;;31.50;12.35;;;;;;;2.04;100.00;94692.16;4996771;28;20038;-85
2022/01/20 07:06:15;;;;;;;45.58;17.33;;;;;;;1.62;100.00;94697.66;5005971;28;20092;-85
2022/01/20 07:08:40;;;;;;;47.20;20.33;;;;;;;1.38;100.00;94698.09;5012071;28;20023;-84
2022/01/20 07:11:05;;;;;;;41.03;17.88;;;;;;;1.31;100.00;94704.28;4994972;28;20415;-85
2022/01/20 07:13:31;;;;;;;28.98;13.80;;;;;;;1.48;100.00;94696.88;4999544;28;20121;-85
2022/01/20 07:15:57;;;;;;;22.63;10.27;;;;;;;1.76;100.00;94701.00;5016109;28;20062;-85
2022/01/20 07:18:22;;;;;;;33.00;13.82;;;;;;;1.68;100.00;94684.72;5016239;28;20475;-85
2022/01/20 07:20:47;;;;;;;26.10;11.15;;;;;;;1.83;100.00;94687.06;5016265;28;20105;-85
2022/01/20 07:23:13;;;;;;;21.42;8.68;;;;;;;1.82;100.00;94688.06;4996400;28;20030;-85
2022/01/20 07:25:39;;;;;;;18.42;9.55;;;;;;;1.98;100.00;94676.47;4990551;28;20089;-85
2022/01/20 07:28:04;;;;;;;19.83;9.60;;;;;;;1.88;100.00;94683.88;4980123;28;20031;-85
2022/01/20 07:30:30;;;;;;;18.58;9.02;;;;;;;1.86;100.00;94691.03;4983651;28;20054;-85
2022/01/20 07:32:55;;;;;;;20.08;10.05;;;;;;;1.93;100.00;94688.41;4999675;28;20037;-85
2022/01/20 07:35:21;;;;;;;22.35;9.80;;;;;;;2.09;100.00;94684.59;4998795;28;20389;-84
2022/01/20 07:37:47;;;;;;;17.67;9.27;;;;;;;2.18;100.00;94695.50;4987262;28;20042;-85
2022/01/20 07:40:13;;;;;;;20.70;9.40;;;;;;;2.26;100.00;94693.44;5000724;28;20033;-85
2022/01/20 07:42:38;;;;;;;19.20;8.48;;;;;;;2.27;100.00;94704.56;5015765;28;20422;-85
2022/01/20 07:45:05;;;;;;;17.98;8.32;;;;;;;2.33;100.00;94700.38;5015182;28;20049;-85
2022/01/20 07:47:30;;;;;;;20.50;7.90;;;;;;;2.38;100.00;94705.75;4999076;28;20030;-85
2022/01/20 07:49:55;;;;;;;15.38;8.23;;;;;;;2.54;100.00;94705.25;5015590;28;20343;-85
2022/01/20 07:52:22;;;;;;;23.08;9.50;;;;;;;2.36;100.00;94708.50;4998919;28;20044;-85
2022/01/20 07:54:47;;;;;;;16.17;7.93;;;;;;;2.33;100.00;94708.94;4998775;28;20109;-85
2022/01/20 07:57:13;;;;;;;28.08;12.23;;;;;;;2.31;100.00;94715.31;5000386;28;20061;-85
2022/01/20 07:59:38;;;;;;;22.95;11.88;;;;;;;2.56;100.00;94715.38;4999067;28;20034;-85
2022/01/20 08:02:04;;;;;;;19.45;10.68;;;;;;;2.49;100.00;94712.81;5000214;28;20030;-85
2022/01/20 08:04:29;;;;;;;28.35;11.70;;;;;;;2.39;100.00;94715.84;4999779;28;20042;-85
2022/01/20 08:06:55;;;;;;;24.55;12.90;;;;;;;2.62;100.00;94721.50;5009450;28;20038;-85
2022/01/20 08:09:22;;;;;;;29.27;12.57;;;;;;;2.34;100.00;94726.03;4981370;28;20031;-85
2022/01/20 08:11:48;;;;;;;19.42;9.77;;;;;;;2.14;100.00;94733.06;4998316;28;20117;-85
2022/01/20 08:14:13;;;;;;;20.27;9.48;;;;;;;2.13;100.00;94732.28;4998503;28;20475;-85
2022/01/20 08:16:39;;;;;;;32.05;13.23;;;;;;;2.11;100.00;94736.88;4998533;28;20403;-85
2022/01/20 08:19:04;;;;;;;29.73;13.27;;;;;;;1.97;100.00;94743.88;4998434;28;20423;-85
2022/01/20 08:21:30;;;;;;;27.30;12.65;;;;;;;2.09;100.00;94738.88;4998390;28;20037;-84
2022/01/20 08:23:55;;;;;;;25.65;12.05;;;;;;;2.16;100.00;94744.81;4999231;28;20037;-85
2022/01/20 08:26:20;;;;;;;24.65;11.98;;;;;;;2.29;100.00;94743.94;4998648;28;20034;-84
2022/01/20 08:28:46;;;;;;;29.80;12.63;;;;;;;2.47;100.00;94743.28;4999694;28;20113;-84
2022/01/20 08:31:11;;;;;;;28.83;14.48;;;;;;;2.64;100.00;94745.38;4998485;28;20034;-85
2022/01/20 08:33:37;;;;;;;37.00;15.70;;;;;;;2.49;100.00;94732.72;4997872;28;20027;-85
2022/01/20 08:36:03;;;;;;;38.80;16.85;;;;;;;2.51;100.00;94730.72;4999567;28;20180;-85
2022/01/20 08:38:28;;;;;;;41.03;17.83;;;;;;;2.53;100.00;94731.31;4998179;28;20085;-85
2022/01/20 08:40:54;;;;;;;38.10;18.08;;;;;;;2.74;100.00;94734.59;4982071;28;20022;-85
2022/01/20 08:43:20;;;;;;;42.42;18.13;;;;;;;2.65;100.00;94727.06;4996434;28;20027;-85
2022/01/20 08:45:46;;;;;;;44.95;19.42;;;;;;;2.61;100.00;94723.31;4998969;28;20138;-85
2022/01/20 08:48:13;;;;;;;47.83;19.83;;;;;;;2.73;100.00;94723.44;4998240;28;20068;-85
2022/01/20 08:50:40;;;;;;;39.40;18.83;;;;;;;2.83;100.00;94717.78;4998170;28;20531;-85
2022/01/20 08:53:05;;;;;;;45.25;19.08;;;;;;;3.00;100.00;94723.25;4994695;28;20113;-85
2022/01/20 08:55:31;;;;;;;49.33;19.67;;;;;;;3.21;100.00;94735.06;4961946;28;20113;-84
2022/01/20 08:57:58;;;;;;;43.65;18.92;;;;;;;3.36;100.00;94733.94;4978572;28;20050;-85
2022/01/20 09:00:30;;;;;;;34.85;17.15;;;;;;;3.70;100.00;94731.81;4982381;28;20023;-85
2022/01/20 09:02:58;;;;;;;35.67;16.20;;;;;;;4.05;100.00;94725.28;4997786;28;20100;-86
2022/01/20 09:05:23;;;;;;;33.72;16.08;;;;;;;4.28;100.00;94729.03;4993919;28;20286;-86
2022/01/20 09:07:49;;;;;;;40.20;18.05;;;;;;;4.13;100.00;94739.75;4984326;28;20049;-86
2022/01/20 09:10:19;;;;;;;35.42;17.63;;;;;;;3.94;100.00;94747.56;4991195;28;20042;-86
2022/01/20 09:15:28;;;;;;;39.05;18.30;;;;;;;3.98;100.00;94748.69;4994356;28;20054;-86
2022/01/20 09:17:59;;;;;;;55.28;24.55;;;;;;;3.78;100.00;94754.88;4996122;28;20081;-85
2022/01/20 09:20:25;;;;;;;64.40;28.15;;;;;;;3.32;100.00;94754.28;4994059;28;20073;-85
2022/01/20 09:22:51;;;;;;;58.65;28.15;;;;;;;3.28;100.00;94763.50;4997780;28;20034;-85
2022/01/20 09:25:18;;;;;;;76.82;33.50;;;;;;;3.23;100.00;94751.16;4978278;28;20314;-85
2022/01/20 09:27:44;;;;;;;84.45;37.45;;;;;;;3.27;100.00;94759.31;4994172;28;20037;-85
2022/01/20 09:30:10;;;;;;;84.25;34.97;;;;;;;3.32;100.00;94758.69;4982329;28;20712;-86
2022/01/20 09:32:40;;;;;;;87.53;35.25;;;;;;;3.18;100.00;94742.44;5013383;28;20455;-87
2022/01/20 09:35:06;;;;;;;75.85;32.50;;;;;;;3.22;100.00;94741.81;4980964;28;20030;-86
2022/01/20 09:37:31;;;;;;;75.25;32.58;;;;;;;3.26;100.00;94739.59;4996921;28;20039;-87
2022/01/20 09:39:57;;;;;;;68.13;30.58;;;;;;;3.54;100.00;94743.56;4981496;28;20036;-86
2022/01/20 09:42:24;;;;;;;76.15;32.13;;;;;;;3.46;100.00;94749.81;4998082;28;20026;-86
2022/01/20 09:44:52;;;;;;;77.82;32.83;;;;;;;3.30;100.00;94748.53;5012882;28;20053;-86
2022/01/20 09:47:19;;;;;;;85.15;35.20;;;;;;;3.53;100.00;94749.75;4997934;28;20030;-86
2022/01/20 09:49:45;;;;;;;83.38;36.50;;;;;;;3.86;100.00;94740.84;4992960;28;20069;-86
2022/01/20 09:52:11;;;;;;;80.72;34.83;;;;;;;4.07;100.00;94751.78;4961416;28;20470;-86
2022/01/20 09:54:37;;;;;;;89.72;37.80;;;;;;;4.20;100.00;94743.09;4995216;28;20043;-86
2022/01/20 09:57:04;;;;;;;95.00;38.47;;;;;;;4.05;100.00;94736.47;4961365;28;20026;-87
2022/01/20 09:59:31;;;;;;;96.97;40.88;;;;;;;3.96;100.00;94743.75;4980262;28;20033;-85
2022/01/20 10:01:58;;;;;;;91.45;38.25;;;;;;;4.13;100.00;94739.75;4980667;28;20023;-86
2022/01/20 10:04:26;;;;;;;98.53;40.45;;;;;;;3.60;100.00;94742.69;4996385;28;20026;-86
2022/01/20 10:07:03;;;;;;;106.45;42.40;;;;;;;3.53;100.00;94741.97;4980506;28;20029;-86
2022/01/20 10:09:36;;;;;;;92.53;39.45;;;;;;;3.91;100.00;94737.63;4997701;28;20493;-86
2022/01/20 10:12:02;;;;;;;93.55;40.20;;;;;;;4.44;100.00;94743.19;4997895;28;20038;-86
2022/01/20 10:14:41;;;;;;;113.15;45.47;;;;;;;3.86;100.00;94743.44;4997154;28;20424;-86
2022/01/20 10:17:21;;;;;;;100.38;41.45;;;;;;;4.13;100.00;94742.34;4996626;28;20529;-86
2022/01/20 10:19:54;;;;;;;91.15;38.47;;;;;;;4.71;100.00;94732.47;4996609;28;20031;-86
2022/01/20 10:22:25;;;;;;;93.10;41.40;;;;;;;4.31;100.00;94721.59;4996573;28;20037;-86
2022/01/20 10:25:02;;;;;;;99.25;42.80;;;;;;;3.96;100.00;94724.78;4988156;28;20031;-86
2022/01/20 10:27:29;;;;;;;93.35;41.90;;;;;;;3.93;100.00;94735.59;4977241;28;20348;-86
2022/01/20 10:30:00;;;;;;;107.45;45.75;;;;;;;3.79;100.00;94734.94;4977324;28;20034;-86
2022/01/20 10:32:26;;;;;;;108.57;45.53;;;;;;;3.48;100.00;94728.84;4991662;28;20432;-86
2022/01/20 10:35:03;;;;;;;94.95;41.20;;;;;;;3.44;100.00;94722.50;4995672;28;20065;-86
2022/01/20 10:37:30;;;;;;;107.30;44.15;;;;;;;3.49;100.00;94728.66;4996160;28;20108;-86
2022/01/20 10:40:06;;;;;;;107.95;43.80;;;;;;;3.22;100.00;94721.09;4997298;28;20142;-86
2022/01/20 10:42:36;;;;;;;123.88;46.95;;;;;;;3.50;100.00;94721.66;4997567;28;20038;-86
2022/01/20 10:45:02;;;;;;;115.28;45.80;;;;;;;4.00;100.00;94717.38;5012402;28;20042;-87
2022/01/20 10:47:30;;;;;;;115.13;45.67;;;;;;;4.39;100.00;94708.31;4996597;28;20089;-86
2022/01/20 10:50:13;;;;;;;115.63;45.60;;;;;;;3.73;100.00;94700.31;4995834;28;20036;-86
2022/01/20 10:52:43;;;;;;;111.43;43.88;;;;;;;3.65;100.00;94698.00;4977808;28;20139;-86
2022/01/20 10:55:19;;;;;;;114.70;45.45;;;;;;;3.47;100.00;94691.81;4976827;28;20566;-86
2022/01/20 10:57:45;;;;;;;115.50;44.47;;;;;;;3.59;100.00;94691.09;4977779;28;20026;-86
2022/01/20 11:00:12;;;;;;;119.63;44.92;;;;;;;3.32;100.00;94686.94;4976769;28;20033;-86
2022/01/20 11:02:37;;;;;;;112.25;44.53;;;;;;;3.46;100.00;94694.59;4976434;28;20035;-86
2022/01/20 11:05:04;;;;;;;97.95;39.25;;;;;;;3.85;100.00;94681.44;4976365;28;20351;-86
2022/01/20 11:07:30;;;;;;;98.57;39.70;;;;;;;3.75;100.00;94682.75;4960787;28;20039;-86
2022/01/20 11:10:01;;;;;;;90.68;35.42;;;;;;;3.97;100.00;94674.53;4976591;28;20147;-86
2022/01/20 11:12:26;;;;;;;82.43;33.42;;;;;;;4.08;100.00;94668.59;4977852;28;20039;-86
2022/01/20 11:14:53;;;;;;;68.60;28.77;;;;;;;3.94;100.00;94662.78;4977698;28;20041;-86
2022/01/20 11:17:25;;;;;;;63.85;27.40;;;;;;;3.25;100.00;94663.69;4976406;28;20043;-86
2022/01/20 11:19:51;;;;;;;65.50;27.90;;;;;;;3.44;100.00;94660.34;4990365;28;20129;-86
2022/01/20 11:22:19;;;;;;;69.65;29.15;;;;;;;4.10;100.00;94656.22;4976328;28;20027;-86
2022/01/20 11:25:03;;;;;;;63.83;27.55;;;;;;;4.11;100.00;94659.59;4976495;28;20033;-86
2022/01/20 11:27:40;;;;;;;60.38;26.27;;;;;;;4.03;100.00;94650.31;4979833;28;20125;-86
2022/01/20 11:30:15;;;;;;;55.38;23.77;;;;;;;4.41;100.00;94658.00;4979542;28;20033;-86
2022/01/20 11:32:42;;;;;;;55.78;24.77;;;;;;;4.77;100.00;94656.31;4995712;28;20463;-86
2022/01/20 11:35:09;;;;;;;57.10;24.63;;;;;;;5.27;100.00;94647.31;5011918;28;20034;-86
2022/01/20 11:37:40;;;;;;;58.63;25.80;;;;;;;4.50;100.00;94643.72;5012106;28;20053;-86
2022/01/20 11:40:26;;;;;;;53.88;24.58;;;;;;;4.86;100.00;94643.78;4995538;28;20396;-86
2022/01/20 11:43:13;;;;;;;55.25;24.08;;;;;;;5.27;100.00;94643.91;5011361;28;20050;-86
2022/01/20 11:45:41;;;;;;;83.32;36.70;;;;;;;4.69;100.00;94641.03;4991352;28;20031;-86
2022/01/20 11:48:22;;;;;;;340.20;140.00;;;;;;;5.21;100.00;94632.63;4963669;28;20031;-85
2022/01/20 11:51:04;;;;;;;95.07;38.55;;;;;;;4.76;100.00;94639.94;4963615;28;20042;-86
2022/01/20 11:53:29;;;;;;;68.28;28.63;;;;;;;4.98;100.00;94634.22;4985858;28;20118;-85
2022/01/20 11:55:55;;;;;;;60.38;27.10;;;;;;;5.21;100.00;94624.81;4995648;28;20126;-86
2022/01/20 11:58:23;;;;;;;64.63;27.95;;;;;;;5.88;100.00;94623.59;4963474;28;20022;-86
2022/01/20 12:01:08;;;;;;;84.55;41.78;;;;;;;5.44;100.00;94612.84;4979779;28;20031;-86
2022/01/20 12:03:48;;;;;;;64.40;27.45;;;;;;;5.58;100.00;94602.97;4979547;28;20471;-86
2022/01/20 12:06:19;;;;;;;64.57;28.25;;;;;;;4.83;100.00;94600.88;4979392;28;20081;-86
2022/01/20 12:09:01;;;;;;;64.53;27.90;;;;;;;4.94;100.00;94599.31;4980729;28;20057;-86
2022/01/20 12:11:52;;;;;;;64.68;28.35;;;;;;;4.65;100.00;94599.16;4979550;28;20436;-86
2022/01/20 12:14:38;;;;;;;61.65;25.48;;;;;;;4.25;100.00;94592.78;4978230;28;20046;-85
2022/01/20 12:17:11;;;;;;;63.88;26.77;;;;;;;3.78;100.00;94578.63;4979350;28;20034;-85
2022/01/20 12:19:38;;;;;;;55.63;23.90;;;;;;;3.77;100.00;94566.69;4979467;28;20363;-86
2022/01/20 12:22:05;;;;;;;59.25;24.83;;;;;;;3.97;100.00;94557.84;4979374;28;20073;-85
2022/01/20 12:24:32;;;;;;;66.75;27.45;;;;;;;3.69;100.00;94561.81;4978903;28;20065;-86